sensor_id;sensor_type;location;lat;lon;timestamp;temperature;humidity
55795;DHT22;41716;51.910;4.430;2023-04-24T00:01:24;11.30;99.90
55795;DHT22;41716;51.910;4.430;2023-04-24T00:06:27;11.20;99.90
55795;DHT22;41716;51.910;4.430;2023-04-24T00:11:34;11.10;99.90
55795;DHT22;41716;51.910;4.430;2023-04-24T00:16:35;11.90;99.90
55795;DHT22;41716;51.910;4.430;2023-04-24T00:21:39;11.70;99.90
55795;DHT22;41716;51.910;4.430;2023-04-24T00:26:41;11.10;99.90
55795;DHT22;41716;51.910;4.430;2023-04-24T00:31:42;11.90;99.90
55795;DHT22;41716;51.910;4.430;2023-04-24T00:36:45;11.20;99.90
55795;DHT22;41716;51.910;4.430;2023-04-24T00:41:49;11.70;99.90
55795;DHT22;41716;51.910;4.430;2023-04-24T00:46:51;11.60;99.90
55795;DHT22;41716;51.910;4.430;2023-04-24T00:51:56;11.70;99.90
55795;DHT22;41716;51.910;4.430;2023-04-24T00:56:59;11.70;99.90
55795;DHT22;41716;51.910;4.430;2023-04-24T01:02:01;11.50;99.90
55795;DHT22;41716;51.910;4.430;2023-04-24T01:07:05;11.00;99.90
55795;DHT22;41716;51.910;4.430;2023-04-24T01:12:10;12.00;99.90
55795;DHT22;41716;51.910;4.430;2023-04-24T01:17:12;11.10;99.90
55795;DHT22;41716;51.910;4.430;2023-04-24T01:22:15;11.60;99.90
55795;DHT22;41716;51.910;4.430;2023-04-24T01:27:17;11.80;99.90
55795;DHT22;41716;51.910;4.430;2023-04-24T01:32:21;11.90;99.90
55795;DHT22;41716;51.910;4.430;2023-04-24T01:37:24;11.30;99.90
55795;DHT22;41716;51.910;4.430;2023-04-24T01:42:27;10.90;99.90
55795;DHT22;41716;51.910;4.430;2023-04-24T01:47:30;10.80;99.90
55795;DHT22;41716;51.910;4.430;2023-04-24T01:52:33;10.90;99.90
55795;DHT22;41716;51.910;4.430;2023-04-24T01:57:36;11.90;99.90
55795;DHT22;41716;51.910;4.430;2023-04-24T02:02:39;11.80;99.90
55795;DHT22;41716;51.910;4.430;2023-04-24T02:07:42;11.10;99.90
55795;DHT22;41716;51.910;4.430;2023-04-24T02:12:43;10.80;99.90
55795;DHT22;41716;51.910;4.430;2023-04-24T02:17:45;11.00;99.90
55795;DHT22;41716;51.910;4.430;2023-04-24T02:22:48;11.80;99.90
55795;DHT22;41716;51.910;4.430;2023-04-24T02:27:50;11.60;99.90
55795;DHT22;41716;51.910;4.430;2023-04-24T02:32:52;11.10;99.90
55795;DHT22;41716;51.910;4.430;2023-04-24T02:37:55;11.40;99.90
55795;DHT22;41716;51.910;4.430;2023-04-24T02:42:57;11.60;99.90
55795;DHT22;41716;51.910;4.430;2023-04-24T02:47:58;10.50;99.90
55795;DHT22;41716;51.910;4.430;2023-04-24T02:53:01;11.10;99.90
55795;DHT22;41716;51.910;4.430;2023-04-24T02:58:03;11.40;99.90
55795;DHT22;41716;51.910;4.430;2023-04-24T03:03:06;11.50;99.90
55795;DHT22;41716;51.910;4.430;2023-04-24T03:08:09;11.10;99.90
55795;DHT22;41716;51.910;4.430;2023-04-24T03:13:11;11.50;99.90
55795;DHT22;41716;51.910;4.430;2023-04-24T03:18:13;11.40;99.90
55795;DHT22;41716;51.910;4.430;2023-04-24T03:23:16;11.30;99.90
55795;DHT22;41716;51.910;4.430;2023-04-24T03:28:18;11.30;99.90
55795;DHT22;41716;51.910;4.430;2023-04-24T03:33:20;11.20;99.90
55795;DHT22;41716;51.910;4.430;2023-04-24T03:38:22;10.40;99.90
55795;DHT22;41716;51.910;4.430;2023-04-24T03:43:24;11.00;99.90
55795;DHT22;41716;51.910;4.430;2023-04-24T03:48:27;11.40;99.90
55795;DHT22;41716;51.910;4.430;2023-04-24T03:53:30;10.70;99.90
55795;DHT22;41716;51.910;4.430;2023-04-24T03:58:32;11.70;99.90
55795;DHT22;41716;51.910;4.430;2023-04-24T04:03:34;11.70;99.90
55795;DHT22;41716;51.910;4.430;2023-04-24T04:08:37;10.60;99.90
55795;DHT22;41716;51.910;4.430;2023-04-24T04:13:38;11.10;99.90
55795;DHT22;41716;51.910;4.430;2023-04-24T04:18:40;11.40;99.90
55795;DHT22;41716;51.910;4.430;2023-04-24T04:23:43;11.10;99.90
55795;DHT22;41716;51.910;4.430;2023-04-24T04:28:45;10.80;99.90
55795;DHT22;41716;51.910;4.430;2023-04-24T04:33:48;11.20;99.90
55795;DHT22;41716;51.910;4.430;2023-04-24T04:38:51;10.90;99.90
55795;DHT22;41716;51.910;4.430;2023-04-24T04:43:52;11.60;99.90
55795;DHT22;41716;51.910;4.430;2023-04-24T04:48:54;11.20;99.90
55795;DHT22;41716;51.910;4.430;2023-04-24T04:53:58;10.20;99.90
55795;DHT22;41716;51.910;4.430;2023-04-24T04:59:00;10.80;99.90
55795;DHT22;41716;51.910;4.430;2023-04-24T05:04:01;10.90;99.90
55795;DHT22;41716;51.910;4.430;2023-04-24T05:09:04;10.40;99.90
55795;DHT22;41716;51.910;4.430;2023-04-24T05:14:07;10.70;99.90
55795;DHT22;41716;51.910;4.430;2023-04-24T05:19:09;11.10;99.90
55795;DHT22;41716;51.910;4.430;2023-04-24T05:24:13;9.90;99.90
55795;DHT22;41716;51.910;4.430;2023-04-24T05:29:15;10.30;99.90
55795;DHT22;41716;51.910;4.430;2023-04-24T05:34:16;10.90;99.90
55795;DHT22;41716;51.910;4.430;2023-04-24T05:39:19;9.90;99.90
55795;DHT22;41716;51.910;4.430;2023-04-24T05:44:21;10.60;99.90
55795;DHT22;41716;51.910;4.430;2023-04-24T05:49:23;10.00;99.90
55795;DHT22;41716;51.910;4.430;2023-04-24T05:54:26;10.40;99.90
55795;DHT22;41716;51.910;4.430;2023-04-24T05:59:28;9.90;99.90
55795;DHT22;41716;51.910;4.430;2023-04-24T06:04:29;10.90;99.90
55795;DHT22;41716;51.910;4.430;2023-04-24T06:09:32;9.80;99.90
55795;DHT22;41716;51.910;4.430;2023-04-24T06:14:34;10.60;99.90
55795;DHT22;41716;51.910;4.430;2023-04-24T06:19:36;9.80;99.90
55795;DHT22;41716;51.910;4.430;2023-04-24T06:24:39;9.70;99.90
55795;DHT22;41716;51.910;4.430;2023-04-24T06:29:41;10.30;99.90
55795;DHT22;41716;51.910;4.430;2023-04-24T06:34:43;9.60;99.90
55795;DHT22;41716;51.910;4.430;2023-04-24T06:39:46;10.50;99.90
55795;DHT22;41716;51.910;4.430;2023-04-24T06:44:48;10.60;99.90
55795;DHT22;41716;51.910;4.430;2023-04-24T06:49:49;10.10;99.90
55795;DHT22;41716;51.910;4.430;2023-04-24T06:55:00;9.70;99.90
55795;DHT22;41716;51.910;4.430;2023-04-24T07:00:02;10.40;99.90
55795;DHT22;41716;51.910;4.430;2023-04-24T07:05:05;9.90;99.90
55795;DHT22;41716;51.910;4.430;2023-04-24T07:10:10;10.60;99.90
55795;DHT22;41716;51.910;4.430;2023-04-24T07:15:12;9.90;99.90
55795;DHT22;41716;51.910;4.430;2023-04-24T07:20:13;9.80;99.90
55795;DHT22;41716;51.910;4.430;2023-04-24T07:25:17;10.30;99.90
55795;DHT22;41716;51.910;4.430;2023-04-24T07:30:19;9.90;99.90
55795;DHT22;41716;51.910;4.430;2023-04-24T07:35:20;10.50;99.90
55795;DHT22;41716;51.910;4.430;2023-04-24T07:40:23;10.30;99.90
55795;DHT22;41716;51.910;4.430;2023-04-24T07:45:25;10.20;99.90
55795;DHT22;41716;51.910;4.430;2023-04-24T07:50:28;10.20;99.90
55795;DHT22;41716;51.910;4.430;2023-04-24T07:55:31;9.90;99.90
55795;DHT22;41716;51.910;4.430;2023-04-24T08:00:33;10.10;99.90
55795;DHT22;41716;51.910;4.430;2023-04-24T08:05:35;9.90;99.90
55795;DHT22;41716;51.910;4.430;2023-04-24T08:10:38;9.90;99.90
55795;DHT22;41716;51.910;4.430;2023-04-24T08:15:40;9.90;99.90
55795;DHT22;41716;51.910;4.430;2023-04-24T08:20:41;10.20;99.90
55795;DHT22;41716;51.910;4.430;2023-04-24T08:25:44;10.30;99.90
55795;DHT22;41716;51.910;4.430;2023-04-24T08:30:48;10.30;99.90
55795;DHT22;41716;51.910;4.430;2023-04-24T08:35:54;10.30;99.90
55795;DHT22;41716;51.910;4.430;2023-04-24T08:40:59;10.40;99.90
55795;DHT22;41716;51.910;4.430;2023-04-24T08:46:03;10.30;99.90
55795;DHT22;41716;51.910;4.430;2023-04-24T08:51:06;10.20;99.90
55795;DHT22;41716;51.910;4.430;2023-04-24T08:56:09;10.20;99.90
55795;DHT22;41716;51.910;4.430;2023-04-24T09:01:12;10.30;99.90
55795;DHT22;41716;51.910;4.430;2023-04-24T09:06:15;10.30;99.90
55795;DHT22;41716;51.910;4.430;2023-04-24T09:11:18;10.30;99.90
55795;DHT22;41716;51.910;4.430;2023-04-24T09:16:20;10.30;99.90
55795;DHT22;41716;51.910;4.430;2023-04-24T09:21:23;10.00;99.90
55795;DHT22;41716;51.910;4.430;2023-04-24T09:26:29;10.00;99.90
55795;DHT22;41716;51.910;4.430;2023-04-24T09:31:32;10.60;99.90
55795;DHT22;41716;51.910;4.430;2023-04-24T09:36:35;10.60;99.90
55795;DHT22;41716;51.910;4.430;2023-04-24T09:41:45;10.60;99.90
55795;DHT22;41716;51.910;4.430;2023-04-24T09:46:50;10.70;99.90
55795;DHT22;41716;51.910;4.430;2023-04-24T09:51:52;11.00;99.90
55795;DHT22;41716;51.910;4.430;2023-04-24T09:57:06;11.20;99.90
55795;DHT22;41716;51.910;4.430;2023-04-24T10:02:17;11.40;99.90
55795;DHT22;41716;51.910;4.430;2023-04-24T10:07:19;11.60;99.90
55795;DHT22;41716;51.910;4.430;2023-04-24T10:12:23;11.60;99.90
55795;DHT22;41716;51.910;4.430;2023-04-24T10:17:25;11.20;99.90
55795;DHT22;41716;51.910;4.430;2023-04-24T10:22:29;10.90;99.90
55795;DHT22;41716;51.910;4.430;2023-04-24T10:27:32;10.80;99.90
55795;DHT22;41716;51.910;4.430;2023-04-24T10:32:35;10.80;99.90
55795;DHT22;41716;51.910;4.430;2023-04-24T10:37:38;11.00;99.90
55795;DHT22;41716;51.910;4.430;2023-04-24T10:42:42;11.50;99.90
55795;DHT22;41716;51.910;4.430;2023-04-24T10:47:56;11.80;99.90
55795;DHT22;41716;51.910;4.430;2023-04-24T10:53:06;11.80;99.90
55795;DHT22;41716;51.910;4.430;2023-04-24T10:58:10;11.90;99.90
55795;DHT22;41716;51.910;4.430;2023-04-24T11:03:26;13.50;99.90
55795;DHT22;41716;51.910;4.430;2023-04-24T11:08:31;12.70;99.90
55795;DHT22;41716;51.910;4.430;2023-04-24T11:19:01;11.50;99.90
55795;DHT22;41716;51.910;4.430;2023-04-24T11:24:27;11.80;99.90
55795;DHT22;41716;51.910;4.430;2023-04-24T11:29:40;12.00;99.90
55795;DHT22;41716;51.910;4.430;2023-04-24T11:34:45;12.10;99.90
55795;DHT22;41716;51.910;4.430;2023-04-24T11:39:50;12.30;99.90
55795;DHT22;41716;51.910;4.430;2023-04-24T11:44:53;12.70;99.90
55795;DHT22;41716;51.910;4.430;2023-04-24T11:49:58;13.20;99.90
55795;DHT22;41716;51.910;4.430;2023-04-24T11:54:59;13.10;99.90
55795;DHT22;41716;51.910;4.430;2023-04-24T12:00:02;13.70;99.90
55795;DHT22;41716;51.910;4.430;2023-04-24T12:05:07;13.30;99.90
55795;DHT22;41716;51.910;4.430;2023-04-24T12:10:09;13.20;99.90
55795;DHT22;41716;51.910;4.430;2023-04-24T12:15:11;13.50;99.90
55795;DHT22;41716;51.910;4.430;2023-04-24T12:20:15;13.40;99.90
55795;DHT22;41716;51.910;4.430;2023-04-24T12:25:18;13.30;99.90
55795;DHT22;41716;51.910;4.430;2023-04-24T12:30:20;12.90;99.90
55795;DHT22;41716;51.910;4.430;2023-04-24T12:35:25;13.50;99.90
55795;DHT22;41716;51.910;4.430;2023-04-24T12:40:27;13.70;99.90
55795;DHT22;41716;51.910;4.430;2023-04-24T12:45:30;13.20;99.90
55795;DHT22;41716;51.910;4.430;2023-04-24T12:50:33;12.90;99.90
55795;DHT22;41716;51.910;4.430;2023-04-24T12:55:36;12.90;99.90
55795;DHT22;41716;51.910;4.430;2023-04-24T13:00:38;13.20;99.90
55795;DHT22;41716;51.910;4.430;2023-04-24T13:05:42;13.50;99.90
55795;DHT22;41716;51.910;4.430;2023-04-24T13:10:44;13.80;99.90
55795;DHT22;41716;51.910;4.430;2023-04-24T13:15:45;13.40;99.90
55795;DHT22;41716;51.910;4.430;2023-04-24T13:20:49;13.30;99.90
55795;DHT22;41716;51.910;4.430;2023-04-24T13:25:50;12.60;99.90
55795;DHT22;41716;51.910;4.430;2023-04-24T13:30:52;11.80;99.90
55795;DHT22;41716;51.910;4.430;2023-04-24T13:35:55;11.80;99.90
55795;DHT22;41716;51.910;4.430;2023-04-24T13:40:57;12.30;99.90
55795;DHT22;41716;51.910;4.430;2023-04-24T13:45:58;13.10;99.90
55795;DHT22;41716;51.910;4.430;2023-04-24T13:51:04;13.20;99.90
55795;DHT22;41716;51.910;4.430;2023-04-24T13:56:06;13.90;99.90
55795;DHT22;41716;51.910;4.430;2023-04-24T14:01:09;13.70;99.90
55795;DHT22;41716;51.910;4.430;2023-04-24T14:06:12;13.00;99.90
55795;DHT22;41716;51.910;4.430;2023-04-24T14:11:14;12.60;99.90
55795;DHT22;41716;51.910;4.430;2023-04-24T14:16:16;12.70;99.90
55795;DHT22;41716;51.910;4.430;2023-04-24T14:21:19;13.00;99.90
55795;DHT22;41716;51.910;4.430;2023-04-24T14:26:20;13.20;99.90
55795;DHT22;41716;51.910;4.430;2023-04-24T14:31:22;13.70;99.90
55795;DHT22;41716;51.910;4.430;2023-04-24T14:36:25;13.50;99.90
55795;DHT22;41716;51.910;4.430;2023-04-24T14:41:27;13.20;99.90
55795;DHT22;41716;51.910;4.430;2023-04-24T14:46:28;13.20;99.90
55795;DHT22;41716;51.910;4.430;2023-04-24T14:51:32;13.20;99.90
55795;DHT22;41716;51.910;4.430;2023-04-24T14:56:33;13.10;99.90
55795;DHT22;41716;51.910;4.430;2023-04-24T15:01:35;13.00;99.90
55795;DHT22;41716;51.910;4.430;2023-04-24T15:06:38;13.10;99.90
55795;DHT22;41716;51.910;4.430;2023-04-24T15:11:40;12.80;99.90
55795;DHT22;41716;51.910;4.430;2023-04-24T15:16:42;13.30;99.90
55795;DHT22;41716;51.910;4.430;2023-04-24T15:21:46;13.10;99.90
55795;DHT22;41716;51.910;4.430;2023-04-24T15:26:48;13.30;99.90
55795;DHT22;41716;51.910;4.430;2023-04-24T15:31:49;13.10;99.90
55795;DHT22;41716;51.910;4.430;2023-04-24T15:36:52;13.00;99.90
55795;DHT22;41716;51.910;4.430;2023-04-24T15:41:54;13.00;99.90
55795;DHT22;41716;51.910;4.430;2023-04-24T15:47:00;13.10;99.90
55795;DHT22;41716;51.910;4.430;2023-04-24T15:52:03;12.80;99.90
55795;DHT22;41716;51.910;4.430;2023-04-24T15:57:05;13.10;99.90
55795;DHT22;41716;51.910;4.430;2023-04-24T16:02:08;13.10;99.90
55795;DHT22;41716;51.910;4.430;2023-04-24T16:07:12;13.00;99.90
55795;DHT22;41716;51.910;4.430;2023-04-24T16:12:14;12.80;99.90
55795;DHT22;41716;51.910;4.430;2023-04-24T16:17:16;12.70;99.90
55795;DHT22;41716;51.910;4.430;2023-04-24T16:22:20;12.60;99.90
55795;DHT22;41716;51.910;4.430;2023-04-24T16:27:21;12.70;99.90
55795;DHT22;41716;51.910;4.430;2023-04-24T16:32:23;12.50;99.90
55795;DHT22;41716;51.910;4.430;2023-04-24T16:37:27;12.40;99.90
55795;DHT22;41716;51.910;4.430;2023-04-24T16:42:30;12.30;99.90
55795;DHT22;41716;51.910;4.430;2023-04-24T16:47:32;12.10;99.90
55795;DHT22;41716;51.910;4.430;2023-04-24T16:52:35;12.20;99.90
55795;DHT22;41716;51.910;4.430;2023-04-24T16:57:36;12.20;99.90
55795;DHT22;41716;51.910;4.430;2023-04-24T17:02:38;12.00;99.90
55795;DHT22;41716;51.910;4.430;2023-04-24T17:07:41;11.90;99.90
55795;DHT22;41716;51.910;4.430;2023-04-24T17:12:43;11.90;99.90
55795;DHT22;41716;51.910;4.430;2023-04-24T17:17:45;11.90;99.90
55795;DHT22;41716;51.910;4.430;2023-04-24T17:22:48;11.90;99.90
55795;DHT22;41716;51.910;4.430;2023-04-24T17:27:49;11.80;99.90
55795;DHT22;41716;51.910;4.430;2023-04-24T17:32:51;11.70;99.90
55795;DHT22;41716;51.910;4.430;2023-04-24T17:37:54;11.50;99.90
55795;DHT22;41716;51.910;4.430;2023-04-24T17:42:56;11.60;99.90
55795;DHT22;41716;51.910;4.430;2023-04-24T17:47:58;11.50;99.90
55795;DHT22;41716;51.910;4.430;2023-04-24T17:53:01;11.30;99.90
55795;DHT22;41716;51.910;4.430;2023-04-24T17:58:03;11.40;99.90
55795;DHT22;41716;51.910;4.430;2023-04-24T18:03:05;11.40;99.90
55795;DHT22;41716;51.910;4.430;2023-04-24T18:08:09;11.40;99.90
55795;DHT22;41716;51.910;4.430;2023-04-24T18:13:11;11.30;99.90
55795;DHT22;41716;51.910;4.430;2023-04-24T18:18:12;11.10;99.90
55795;DHT22;41716;51.910;4.430;2023-04-24T18:23:16;11.00;99.90
55795;DHT22;41716;51.910;4.430;2023-04-24T18:28:17;10.90;99.90
55795;DHT22;41716;51.910;4.430;2023-04-24T18:33:19;10.80;99.90
55795;DHT22;41716;51.910;4.430;2023-04-24T18:38:22;10.70;99.90
55795;DHT22;41716;51.910;4.430;2023-04-24T18:43:25;10.60;99.90
55795;DHT22;41716;51.910;4.430;2023-04-24T18:48:27;10.40;99.90
55795;DHT22;41716;51.910;4.430;2023-04-24T18:53:31;10.30;99.90
55795;DHT22;41716;51.910;4.430;2023-04-24T18:58:33;10.40;99.90
55795;DHT22;41716;51.910;4.430;2023-04-24T19:03:35;10.40;99.90
55795;DHT22;41716;51.910;4.430;2023-04-24T19:08:38;10.40;99.90
55795;DHT22;41716;51.910;4.430;2023-04-24T19:13:41;10.40;99.90
55795;DHT22;41716;51.910;4.430;2023-04-24T19:18:43;10.10;99.90
55795;DHT22;41716;51.910;4.430;2023-04-24T19:23:46;10.00;99.90
55795;DHT22;41716;51.910;4.430;2023-04-24T19:28:49;9.90;99.90
55795;DHT22;41716;51.910;4.430;2023-04-24T19:33:52;10.00;99.90
55795;DHT22;41716;51.910;4.430;2023-04-24T19:38:55;9.90;99.90
55795;DHT22;41716;51.910;4.430;2023-04-24T19:43:57;9.80;99.90
55795;DHT22;41716;51.910;4.430;2023-04-24T19:48:59;9.80;99.90
55795;DHT22;41716;51.910;4.430;2023-04-24T19:54:02;9.80;99.90
55795;DHT22;41716;51.910;4.430;2023-04-24T19:59:05;10.00;99.90
55795;DHT22;41716;51.910;4.430;2023-04-24T20:04:08;9.80;99.90
55795;DHT22;41716;51.910;4.430;2023-04-24T20:09:12;9.90;99.90
55795;DHT22;41716;51.910;4.430;2023-04-24T20:14:13;9.70;99.90
55795;DHT22;41716;51.910;4.430;2023-04-24T20:19:15;9.90;99.90
55795;DHT22;41716;51.910;4.430;2023-04-24T20:24:18;9.80;99.90
55795;DHT22;41716;51.910;4.430;2023-04-24T20:29:20;9.70;99.90
55795;DHT22;41716;51.910;4.430;2023-04-24T20:34:22;9.60;99.90
55795;DHT22;41716;51.910;4.430;2023-04-24T20:39:25;9.70;99.90
55795;DHT22;41716;51.910;4.430;2023-04-24T20:44:26;9.50;99.90
55795;DHT22;41716;51.910;4.430;2023-04-24T20:49:28;9.40;99.90
55795;DHT22;41716;51.910;4.430;2023-04-24T20:54:31;9.20;99.90
55795;DHT22;41716;51.910;4.430;2023-04-24T20:59:33;9.20;99.90
55795;DHT22;41716;51.910;4.430;2023-04-24T21:04:34;9.10;99.90
55795;DHT22;41716;51.910;4.430;2023-04-24T21:09:40;9.00;99.90
55795;DHT22;41716;51.910;4.430;2023-04-24T21:14:42;9.00;99.90
55795;DHT22;41716;51.910;4.430;2023-04-24T21:19:44;8.90;99.90
55795;DHT22;41716;51.910;4.430;2023-04-24T21:24:47;9.00;99.90
55795;DHT22;41716;51.910;4.430;2023-04-24T21:29:48;8.80;99.90
55795;DHT22;41716;51.910;4.430;2023-04-24T21:34:50;8.80;99.90
55795;DHT22;41716;51.910;4.430;2023-04-24T21:39:53;8.70;99.90
55795;DHT22;41716;51.910;4.430;2023-04-24T21:44:55;8.80;99.90
55795;DHT22;41716;51.910;4.430;2023-04-24T21:49:57;8.80;99.90
55795;DHT22;41716;51.910;4.430;2023-04-24T21:55:00;8.80;99.90
55795;DHT22;41716;51.910;4.430;2023-04-24T22:00:02;8.80;99.90
55795;DHT22;41716;51.910;4.430;2023-04-24T22:05:06;8.90;99.90
55795;DHT22;41716;51.910;4.430;2023-04-24T22:10:11;8.80;99.90
55795;DHT22;41716;51.910;4.430;2023-04-24T22:15:13;8.80;99.90
55795;DHT22;41716;51.910;4.430;2023-04-24T22:20:14;8.70;99.90
55795;DHT22;41716;51.910;4.430;2023-04-24T22:25:18;8.70;99.90
55795;DHT22;41716;51.910;4.430;2023-04-24T22:30:20;8.60;99.90
55795;DHT22;41716;51.910;4.430;2023-04-24T22:35:22;8.60;99.90
55795;DHT22;41716;51.910;4.430;2023-04-24T22:40:25;8.60;99.90
55795;DHT22;41716;51.910;4.430;2023-04-24T22:45:26;8.70;99.90
55795;DHT22;41716;51.910;4.430;2023-04-24T22:50:28;8.50;99.90
55795;DHT22;41716;51.910;4.430;2023-04-24T22:55:31;8.60;99.90
55795;DHT22;41716;51.910;4.430;2023-04-24T23:00:33;8.60;99.90
55795;DHT22;41716;51.910;4.430;2023-04-24T23:05:35;8.40;99.90
55795;DHT22;41716;51.910;4.430;2023-04-24T23:10:38;8.60;99.90
55795;DHT22;41716;51.910;4.430;2023-04-24T23:15:40;8.50;99.90
55795;DHT22;41716;51.910;4.430;2023-04-24T23:20:42;8.40;99.90
55795;DHT22;41716;51.910;4.430;2023-04-24T23:25:45;8.70;99.90
55795;DHT22;41716;51.910;4.430;2023-04-24T23:30:46;8.50;99.90
55795;DHT22;41716;51.910;4.430;2023-04-24T23:35:48;8.40;99.90
55795;DHT22;41716;51.910;4.430;2023-04-24T23:40:51;8.50;99.90
55795;DHT22;41716;51.910;4.430;2023-04-24T23:45:53;8.50;99.90
55795;DHT22;41716;51.910;4.430;2023-04-24T23:50:55;8.40;99.90
55795;DHT22;41716;51.910;4.430;2023-04-24T23:55:58;8.40;99.90
